Time,TemperatureF,DewpointF,PressureIn,WindDirection,WindDirectionDegrees,WindSpeedMPH,WindSpeedGustMPH,Humidity,HourlyPrecipIn,Conditions,Clouds,dailyrainin,SoftwareType,DateUTC
2013-01-07 00:03:00,34.0,28.0,30.09,WNW,288,3.0,16.0,77,0.00,,,0.00,,2013-01-07 05:03:00,
2013-01-07 00:12:00,34.0,28.0,30.09,WNW,288,3.0,16.0,77,0.00,,,0.00,,2013-01-07 05:12:00,
2013-01-07 00:22:00,34.0,27.0,30.10,NW,319,7.0,17.0,76,0.00,,,0.00,,2013-01-07 05:22:00,
2013-01-07 00:33:00,34.0,27.0,30.09,West,272,9.0,19.0,76,0.00,,,0.00,,2013-01-07 05:33:00,
2013-01-07 00:42:00,34.0,27.0,30.09,West,272,9.0,19.0,76,0.00,,,0.00,,2013-01-07 05:42:00,
2013-01-07 00:53:00,34.0,28.0,30.09,NNW,338,12.0,19.0,78,0.00,,,0.00,,2013-01-07 05:53:00,
2013-01-07 01:02:00,33.0,27.0,30.09,NW,318,8.0,18.0,78,0.00,,,0.00,,2013-01-07 06:02:00,
2013-01-07 01:12:00,33.0,27.0,30.09,NW,318,8.0,18.0,78,0.00,,,0.00,,2013-01-07 06:12:00,
2013-01-07 01:22:00,33.0,27.0,30.09,NNW,330,11.0,20.0,77,0.00,,,0.00,,2013-01-07 06:22:00,
2013-01-07 01:32:00,33.0,27.0,30.09,North,10,4.0,16.0,78,0.00,,,0.00,,2013-01-07 06:32:00,
2013-01-07 01:42:00,33.0,27.0,30.09,North,10,4.0,16.0,78,0.00,,,0.00,,2013-01-07 06:42:00,
2013-01-07 01:52:00,32.0,26.0,30.10,NW,308,4.0,11.0,78,0.00,,,0.00,,2013-01-07 06:52:00,
2013-01-07 02:02:00,32.0,26.0,30.10,NNW,330,5.0,10.0,77,0.00,,,0.00,,2013-01-07 07:02:00,
2013-01-07 02:12:00,32.0,26.0,30.10,NNW,330,5.0,10.0,77,0.00,,,0.00,,2013-01-07 07:12:00,
2013-01-07 02:22:00,32.0,26.0,30.11,NNW,337,4.0,10.0,77,0.00,,,0.00,,2013-01-07 07:22:00,
2013-01-07 02:33:00,31.0,25.0,30.11,WNW,295,3.0,11.0,77,0.00,,,0.00,,2013-01-07 07:33:00,
2013-01-07 02:42:00,31.0,25.0,30.11,WNW,295,3.0,11.0,77,0.00,,,0.00,,2013-01-07 07:42:00,
2013-01-07 02:53:00,31.0,25.0,30.11,NW,310,4.0,8.0,77,0.00,,,0.00,,2013-01-07 07:53:00,
2013-01-07 03:03:00,30.0,24.0,30.12,NNW,341,3.0,12.0,77,0.00,,,0.00,,2013-01-07 08:03:00,
2013-01-07 03:12:00,30.0,24.0,30.12,NNW,341,3.0,12.0,77,0.00,,,0.00,,2013-01-07 08:12:00,
2013-01-07 03:22:00,30.0,23.0,30.13,North,11,0.0,0.0,76,0.00,,,0.00,,2013-01-07 08:22:00,
2013-01-07 03:32:00,29.0,23.0,30.14,North,351,0.0,7.0,77,0.00,,,0.00,,2013-01-07 08:32:00,
2013-01-07 03:42:00,29.0,23.0,30.14,North,351,0.0,7.0,77,0.00,,,0.00,,2013-01-07 08:42:00,
2013-01-07 03:53:00,29.0,23.0,30.15,WNW,290,4.0,13.0,79,0.00,,,0.00,,2013-01-07 08:53:00,
2013-01-07 04:02:00,29.0,23.0,30.14,North,355,0.0,4.0,78,0.00,,,0.00,,2013-01-07 09:02:00,
2013-01-07 04:12:00,29.0,23.0,30.14,North,355,0.0,4.0,78,0.00,,,0.00,,2013-01-07 09:12:00,
2013-01-07 04:22:00,29.0,23.0,30.15,WSW,252,1.0,7.0,79,0.00,,,0.00,,2013-01-07 09:22:00,
2013-01-07 04:32:00,29.0,23.0,30.15,SSW,206,0.0,5.0,79,0.00,,,0.00,,2013-01-07 09:32:00,
2013-01-07 04:42:00,29.0,23.0,30.15,SSW,206,0.0,5.0,79,0.00,,,0.00,,2013-01-07 09:42:00,
2013-01-07 04:53:00,28.0,22.0,30.16,NE,34,1.0,9.0,79,0.00,,,0.00,,2013-01-07 09:53:00,
2013-01-07 05:02:00,28.0,22.0,30.16,NW,317,4.0,11.0,79,0.00,,,0.00,,2013-01-07 10:02:00,
2013-01-07 05:12:00,28.0,22.0,30.16,NNE,27,2.0,5.0,79,0.00,,,0.00,,2013-01-07 10:12:00,
2013-01-07 05:22:00,28.0,22.0,30.16,NNE,27,2.0,5.0,79,0.00,,,0.00,,2013-01-07 10:22:00,
2013-01-07 05:32:00,28.0,22.0,30.16,North,5,2.0,8.0,79,0.00,,,0.00,,2013-01-07 10:32:00,
2013-01-07 05:42:00,28.0,22.0,30.16,North,5,2.0,8.0,79,0.00,,,0.00,,2013-01-07 10:42:00,
2013-01-07 05:52:00,28.0,22.0,30.16,NE,42,4.0,10.0,79,0.00,,,0.00,,2013-01-07 10:52:00,
2013-01-07 06:02:00,28.0,22.0,30.16,NNE,32,2.0,10.0,78,0.00,,,0.00,,2013-01-07 11:02:00,
2013-01-07 06:12:00,28.0,22.0,30.16,NNE,32,2.0,10.0,78,0.00,,,0.00,,2013-01-07 11:12:00,
2013-01-07 06:23:00,28.0,22.0,30.17,SE,144,0.0,3.0,78,0.00,,,0.00,,2013-01-07 11:23:00,
2013-01-07 06:33:00,28.0,22.0,30.18,ENE,73,0.0,4.0,78,0.00,,,0.00,,2013-01-07 11:33:00,
2013-01-07 06:43:00,28.0,22.0,30.18,ENE,73,0.0,4.0,78,0.00,,,0.00,,2013-01-07 11:43:00,
2013-01-07 06:53:00,27.0,21.0,30.19,ENE,73,0.0,0.0,79,0.00,,,0.00,,2013-01-07 11:53:00,
2013-01-07 07:03:00,27.0,21.0,30.19,ENE,72,0.0,0.0,79,0.00,,,0.00,,2013-01-07 12:03:00,
2013-01-07 07:12:00,27.0,22.0,30.20,NE,38,0.0,2.0,81,0.00,,,0.00,,2013-01-07 12:12:00,
2013-01-07 07:22:00,27.0,22.0,30.20,NE,38,0.0,2.0,81,0.00,,,0.00,,2013-01-07 12:22:00,
2013-01-07 07:33:00,27.0,22.0,30.21,East,79,0.0,2.0,81,0.00,,,0.00,,2013-01-07 12:33:00,
2013-01-07 07:43:00,27.0,22.0,30.21,East,79,0.0,2.0,81,0.00,,,0.00,,2013-01-07 12:43:00,
2013-01-07 07:53:00,26.0,21.0,30.22,East,79,0.0,0.0,82,0.00,,,0.00,,2013-01-07 12:53:00,
2013-01-07 08:02:00,26.0,21.0,30.23,East,79,0.0,0.0,82,0.00,,,0.00,,2013-01-07 13:02:00,
2013-01-07 08:12:00,26.0,21.0,30.23,East,79,0.0,0.0,82,0.00,,,0.00,,2013-01-07 13:12:00,
2013-01-07 08:23:00,26.0,22.0,30.23,SE,146,0.0,4.0,83,0.00,,,0.00,,2013-01-07 13:23:00,
2013-01-07 08:33:00,27.0,22.0,30.24,SE,146,0.0,2.0,82,0.00,,,0.00,,2013-01-07 13:33:00,
2013-01-07 08:42:00,27.0,22.0,30.24,SE,146,0.0,2.0,82,0.00,,,0.00,,2013-01-07 13:42:00,
2013-01-07 08:53:00,27.0,22.0,30.24,SE,146,2.0,5.0,82,0.00,,,0.00,,2013-01-07 13:53:00,
2013-01-07 09:03:00,28.0,23.0,30.25,SSE,150,0.0,3.0,82,0.00,,,0.00,,2013-01-07 14:03:00,
2013-01-07 09:12:00,28.0,23.0,30.25,SSE,151,1.0,5.0,82,0.00,,,0.00,,2013-01-07 14:12:00,
2013-01-07 09:23:00,28.0,23.0,30.25,SSE,151,1.0,5.0,82,0.00,,,0.00,,2013-01-07 14:23:00,
2013-01-07 09:33:00,29.0,24.0,30.26,ESE,105,0.0,3.0,82,0.00,,,0.00,,2013-01-07 14:33:00,
2013-01-07 09:43:00,29.0,24.0,30.26,ESE,105,0.0,3.0,82,0.00,,,0.00,,2013-01-07 14:43:00,
2013-01-07 09:53:00,30.0,25.0,30.26,ESE,110,0.0,0.0,80,0.00,,,0.00,,2013-01-07 14:53:00,
2013-01-07 10:03:00,33.0,26.0,30.27,ESE,105,0.0,4.0,76,0.00,,,0.00,,2013-01-07 15:03:00,
2013-01-07 10:12:00,33.0,26.0,30.27,ESE,105,0.0,4.0,76,0.00,,,0.00,,2013-01-07 15:12:00,
2013-01-07 10:22:00,34.0,26.0,30.27,ESE,105,0.0,0.0,71,0.00,,,0.00,,2013-01-07 15:22:00,
2013-01-07 10:33:00,36.0,26.0,30.27,ESE,105,0.0,1.0,66,0.00,,,0.00,,2013-01-07 15:33:00,
2013-01-07 10:43:00,36.0,26.0,30.27,ESE,105,0.0,1.0,66,0.00,,,0.00,,2013-01-07 15:43:00,
2013-01-07 10:53:00,38.0,26.0,30.28,ESE,105,0.0,2.0,62,0.00,,,0.00,,2013-01-07 15:53:00,
2013-01-07 11:02:00,39.0,26.0,30.28,ESE,105,0.0,0.0,59,0.00,,,0.00,,2013-01-07 16:02:00,
2013-01-07 11:12:00,39.0,26.0,30.28,ESE,105,0.0,0.0,59,0.00,,,0.00,,2013-01-07 16:12:00,
2013-01-07 11:22:00,41.0,27.0,30.28,ESE,105,0.0,1.0,57,0.00,,,0.00,,2013-01-07 16:22:00,
2013-01-07 11:33:00,42.0,27.0,30.28,ESE,105,1.0,3.0,54,0.00,,,0.00,,2013-01-07 16:33:00,
2013-01-07 11:43:00,42.0,27.0,30.28,ESE,105,1.0,3.0,54,0.00,,,0.00,,2013-01-07 16:43:00,
2013-01-07 11:53:00,44.0,27.0,30.27,ESE,109,2.0,5.0,50,0.00,,,0.00,,2013-01-07 16:53:00,
2013-01-07 12:03:00,45.0,25.0,30.27,ESE,109,0.0,3.0,46,0.00,,,0.00,,2013-01-07 17:03:00,
2013-01-07 12:12:00,45.0,25.0,30.27,ESE,109,0.0,3.0,46,0.00,,,0.00,,2013-01-07 17:12:00,
2013-01-07 12:23:00,47.0,27.0,30.27,ESE,102,1.0,3.0,46,0.00,,,0.00,,2013-01-07 17:23:00,
2013-01-07 12:33:00,49.0,29.0,30.26,East,92,0.0,5.0,45,0.00,,,0.00,,2013-01-07 17:33:00,
2013-01-07 12:42:00,49.0,29.0,30.26,East,92,0.0,5.0,45,0.00,,,0.00,,2013-01-07 17:42:00,
2013-01-07 12:53:00,49.0,27.0,30.25,ESE,102,0.0,4.0,42,0.00,,,0.00,,2013-01-07 17:53:00,
2013-01-07 13:03:00,50.0,27.0,30.25,ESE,114,0.0,5.0,41,0.00,,,0.00,,2013-01-07 18:03:00,
2013-01-07 13:12:00,50.0,27.0,30.25,ESE,114,0.0,5.0,41,0.00,,,0.00,,2013-01-07 18:12:00,
2013-01-07 13:23:00,50.0,27.0,30.25,ESE,114,0.0,5.0,41,0.00,,,0.00,,2013-01-07 18:23:00,
2013-01-07 13:33:00,50.0,27.0,30.25,ESE,114,0.0,5.0,41,0.00,,,0.00,,2013-01-07 18:33:00,
2013-01-07 13:42:00,50.0,27.0,30.25,ESE,114,0.0,5.0,41,0.00,,,0.00,,2013-01-07 18:42:00,
2013-01-07 14:23:00,50.0,27.0,30.24,SSE,157,0.0,7.0,41,0.00,,,0.00,,2013-01-07 19:23:00,
2013-01-07 14:33:00,50.0,27.0,30.24,SE,133,4.0,8.0,40,0.00,,,0.00,,2013-01-07 19:33:00,
2013-01-07 14:43:00,50.0,27.0,30.24,SE,133,4.0,8.0,40,0.00,,,0.00,,2013-01-07 19:43:00,
2013-01-07 14:53:00,49.0,27.0,30.24,SSE,157,2.0,10.0,43,0.00,,,0.00,,2013-01-07 19:53:00,
2013-01-07 15:03:00,49.0,27.0,30.24,SSW,199,3.0,9.0,43,0.00,,,0.00,,2013-01-07 20:03:00,
2013-01-07 15:12:00,49.0,27.0,30.24,SSW,199,3.0,9.0,43,0.00,,,0.00,,2013-01-07 20:12:00,
2013-01-07 15:23:00,47.0,27.0,30.25,SE,146,3.0,9.0,45,0.00,,,0.00,,2013-01-07 20:23:00,
2013-01-07 15:33:00,47.0,27.0,30.26,SE,126,4.0,9.0,45,0.00,,,0.00,,2013-01-07 20:33:00,
2013-01-07 15:42:00,47.0,27.0,30.26,SE,126,4.0,9.0,45,0.00,,,0.00,,2013-01-07 20:42:00,
2013-01-07 15:53:00,47.0,27.0,30.26,SSE,168,2.0,6.0,45,0.00,,,0.00,,2013-01-07 20:53:00,
2013-01-07 16:03:00,47.0,27.0,30.26,SE,136,0.0,7.0,45,0.00,,,0.00,,2013-01-07 21:03:00,
2013-01-07 16:12:00,47.0,27.0,30.26,SE,136,0.0,7.0,45,0.00,,,0.00,,2013-01-07 21:12:00,
2013-01-07 16:23:00,46.0,25.0,30.26,SSW,203,1.0,5.0,44,0.00,,,0.00,,2013-01-07 21:23:00,
2013-01-07 16:33:00,45.0,25.0,30.26,SSW,199,0.0,6.0,45,0.00,,,0.00,,2013-01-07 21:33:00,
2013-01-07 16:43:00,45.0,25.0,30.26,SSW,199,0.0,6.0,45,0.00,,,0.00,,2013-01-07 21:43:00,
2013-01-07 16:53:00,44.0,25.0,30.26,South,172,0.0,5.0,47,0.00,,,0.00,,2013-01-07 21:53:00,
2013-01-07 17:03:00,43.0,25.0,30.26,South,182,2.0,5.0,48,0.00,,,0.00,,2013-01-07 22:03:00,
2013-01-07 17:12:00,43.0,25.0,30.26,South,182,2.0,5.0,48,0.00,,,0.00,,2013-01-07 22:12:00,
2013-01-07 17:23:00,42.0,24.0,30.26,SSE,148,2.0,6.0,49,0.00,,,0.00,,2013-01-07 22:23:00,
2013-01-07 17:33:00,41.0,24.0,30.27,South,176,1.0,5.0,51,0.00,,,0.00,,2013-01-07 22:33:00,
2013-01-07 17:43:00,41.0,24.0,30.27,South,176,1.0,5.0,51,0.00,,,0.00,,2013-01-07 22:43:00,
2013-01-07 17:53:00,40.0,24.0,30.27,ESE,113,2.0,9.0,53,0.00,,,0.00,,2013-01-07 22:53:00,
2013-01-07 18:02:00,39.0,24.0,30.28,SSE,167,1.0,5.0,55,0.00,,,0.00,,2013-01-07 23:02:00,
2013-01-07 18:12:00,39.0,25.0,30.28,SSE,167,0.0,0.0,57,0.00,,,0.00,,2013-01-07 23:12:00,
2013-01-07 18:22:00,39.0,25.0,30.28,SSE,167,0.0,0.0,57,0.00,,,0.00,,2013-01-07 23:22:00,
2013-01-07 18:33:00,37.0,24.0,30.29,SSE,167,0.0,0.0,58,0.00,,,0.00,,2013-01-07 23:33:00,
2013-01-07 18:43:00,37.0,24.0,30.29,SSE,167,0.0,0.0,58,0.00,,,0.00,,2013-01-07 23:43:00,
2013-01-07 18:53:00,37.0,25.0,30.29,South,191,1.0,6.0,61,0.00,,,0.00,,2013-01-07 23:53:00,
2013-01-07 19:03:00,36.0,25.0,30.29,South,191,0.0,2.0,63,0.00,,,0.00,,2013-01-08 00:03:00,
2013-01-07 19:12:00,36.0,25.0,30.29,South,191,0.0,2.0,63,0.00,,,0.00,,2013-01-08 00:12:00,
2013-01-07 19:22:00,36.0,25.0,30.30,South,191,0.0,3.0,64,0.00,,,0.00,,2013-01-08 00:22:00,
2013-01-07 19:33:00,36.0,25.0,30.29,South,191,0.0,3.0,65,0.00,,,0.00,,2013-01-08 00:33:00,
2013-01-07 19:42:00,36.0,25.0,30.29,South,191,0.0,3.0,65,0.00,,,0.00,,2013-01-08 00:42:00,
2013-01-07 19:53:00,35.0,24.0,30.29,South,182,0.0,5.0,65,0.00,,,0.00,,2013-01-08 00:53:00,
2013-01-07 20:03:00,35.0,25.0,30.29,South,182,0.0,0.0,67,0.00,,,0.00,,2013-01-08 01:03:00,
2013-01-07 20:12:00,35.0,25.0,30.29,South,182,0.0,0.0,67,0.00,,,0.00,,2013-01-08 01:12:00,
2013-01-07 20:22:00,34.0,25.0,30.29,South,182,0.0,0.0,68,0.00,,,0.00,,2013-01-08 01:22:00,
2013-01-07 20:33:00,34.0,25.0,30.29,South,182,0.0,0.0,70,0.00,,,0.00,,2013-01-08 01:33:00,
2013-01-07 20:42:00,34.0,25.0,30.29,South,182,0.0,0.0,70,0.00,,,0.00,,2013-01-08 01:42:00,
2013-01-07 20:52:00,33.0,25.0,30.28,South,182,0.0,0.0,71,0.00,,,0.00,,2013-01-08 01:52:00,
2013-01-07 21:02:00,32.0,24.0,30.29,South,182,0.0,0.0,71,0.00,,,0.00,,2013-01-08 02:02:00,
2013-01-07 21:12:00,32.0,24.0,30.29,South,182,0.0,0.0,71,0.00,,,0.00,,2013-01-08 02:12:00,
2013-01-07 21:22:00,32.0,24.0,30.29,South,182,0.0,0.0,73,0.00,,,0.00,,2013-01-08 02:22:00,
2013-01-07 21:33:00,32.0,24.0,30.29,South,182,0.0,0.0,73,0.00,,,0.00,,2013-01-08 02:33:00,
2013-01-07 21:42:00,32.0,24.0,30.29,South,182,0.0,0.0,73,0.00,,,0.00,,2013-01-08 02:42:00,
2013-01-07 21:53:00,32.0,24.0,30.28,South,182,0.0,0.0,73,0.00,,,0.00,,2013-01-08 02:53:00,
2013-01-07 22:03:00,31.0,23.0,30.27,South,182,0.0,0.0,73,0.00,,,0.00,,2013-01-08 03:03:00,
2013-01-07 22:12:00,31.0,23.0,30.27,South,182,0.0,0.0,73,0.00,,,0.00,,2013-01-08 03:12:00,
2013-01-07 22:22:00,31.0,23.0,30.27,South,182,0.0,0.0,73,0.00,,,0.00,,2013-01-08 03:22:00,
2013-01-07 22:32:00,30.0,23.0,30.27,South,182,0.0,0.0,74,0.00,,,0.00,,2013-01-08 03:32:00,
2013-01-07 22:43:00,30.0,23.0,30.27,South,182,0.0,0.0,74,0.00,,,0.00,,2013-01-08 03:43:00,
2013-01-07 22:53:00,30.0,23.0,30.27,South,182,0.0,0.0,75,0.00,,,0.00,,2013-01-08 03:53:00,
2013-01-07 23:02:00,29.0,22.0,30.27,South,183,0.0,1.0,76,0.00,,,0.00,,2013-01-08 04:02:00,
2013-01-07 23:12:00,29.0,22.0,30.27,South,183,0.0,1.0,76,0.00,,,0.00,,2013-01-08 04:12:00,
2013-01-07 23:22:00,32.0,25.0,30.28,WSW,253,2.0,7.0,75,0.00,,,0.00,,2013-01-08 04:22:00,
2013-01-07 23:32:00,32.0,25.0,30.28,SW,233,4.0,5.0,74,0.00,,,0.00,,2013-01-08 04:32:00,
2013-01-07 23:42:00,32.0,25.0,30.28,SW,233,4.0,5.0,74,0.00,,,0.00,,2013-01-08 04:42:00,
2013-01-07 23:52:00,32.0,25.0,30.27,SSW,199,3.0,7.0,74,0.00,,,0.00,,2013-01-08 04:52:00,